Strinestown, Pennsylvania
Current Conditions -  °F | °C
As of 4:56 AM on Monday 22 Dec 2014 (Local Time) from KMDT Reporting Station
Haze Haze  
Wind Chill: 21°   Ceiling: Unl
Heat Index: 21°   Visibility: 6mi
Dew Point: 18°   Wind: 3mph
Humidity: 88%   Direction: 70°ENE
Pressure: 30.28"   Gusts: NA
Location:  40.0596°N, 76.7235°W
Report Text: KMDT 220956Z 07003KT 6SM BR SCT250 M06/M08 A3028 RMK AO2 SLP259 I1000 T10611078 $
Loading
Personal Weather Stations






























Interactive Weather Map New forecast layout! Learn more

10-Day Weather Forecast

Advertisements
Track Severe Weather on mobile